sensor_id;sensor_type;location;lat;lon;timestamp;P1;durP1;ratioP1;P2;durP2;ratioP2
68866;SDS011;56451;44.804;20.476;2023-04-03T00:01:37;7.60;;;5.13;;
68866;SDS011;56451;44.804;20.476;2023-04-03T00:04:04;8.40;;;5.03;;
68866;SDS011;56451;44.804;20.476;2023-04-03T00:06:31;9.63;;;5.63;;
68866;SDS011;56451;44.804;20.476;2023-04-03T00:08:58;9.02;;;5.78;;
68866;SDS011;56451;44.804;20.476;2023-04-03T00:11:24;7.68;;;5.20;;
68866;SDS011;56451;44.804;20.476;2023-04-03T00:13:50;7.13;;;4.95;;
68866;SDS011;56451;44.804;20.476;2023-04-03T00:16:16;7.82;;;5.22;;
68866;SDS011;56451;44.804;20.476;2023-04-03T00:18:42;6.57;;;4.90;;
68866;SDS011;56451;44.804;20.476;2023-04-03T00:21:09;7.00;;;5.00;;
68866;SDS011;56451;44.804;20.476;2023-04-03T00:23:37;7.40;;;4.78;;
68866;SDS011;56451;44.804;20.476;2023-04-03T00:26:03;6.90;;;5.00;;
68866;SDS011;56451;44.804;20.476;2023-04-03T00:28:29;6.35;;;4.97;;
68866;SDS011;56451;44.804;20.476;2023-04-03T00:30:55;7.93;;;5.20;;
68866;SDS011;56451;44.804;20.476;2023-04-03T00:33:21;7.82;;;5.10;;
68866;SDS011;56451;44.804;20.476;2023-04-03T00:35:47;9.15;;;5.18;;
68866;SDS011;56451;44.804;20.476;2023-04-03T00:38:15;7.07;;;4.80;;
68866;SDS011;56451;44.804;20.476;2023-04-03T00:40:42;7.63;;;4.90;;
68866;SDS011;56451;44.804;20.476;2023-04-03T00:43:14;6.35;;;4.30;;
68866;SDS011;56451;44.804;20.476;2023-04-03T00:45:46;7.47;;;4.60;;
68866;SDS011;56451;44.804;20.476;2023-04-03T00:48:18;5.30;;;3.70;;
68866;SDS011;56451;44.804;20.476;2023-04-03T00:50:47;5.57;;;4.00;;
68866;SDS011;56451;44.804;20.476;2023-04-03T00:53:24;5.33;;;3.80;;
68866;SDS011;56451;44.804;20.476;2023-04-03T00:55:54;5.20;;;4.10;;
68866;SDS011;56451;44.804;20.476;2023-04-03T00:58:22;6.03;;;3.78;;
68866;SDS011;56451;44.804;20.476;2023-04-03T01:00:57;5.35;;;3.88;;
68866;SDS011;56451;44.804;20.476;2023-04-03T01:03:24;9.90;;;4.20;;
68866;SDS011;56451;44.804;20.476;2023-04-03T01:05:51;6.53;;;3.90;;
68866;SDS011;56451;44.804;20.476;2023-04-03T01:08:17;8.07;;;4.13;;
68866;SDS011;56451;44.804;20.476;2023-04-03T01:10:43;6.72;;;4.32;;
68866;SDS011;56451;44.804;20.476;2023-04-03T01:16:06;7.22;;;4.07;;
68866;SDS011;56451;44.804;20.476;2023-04-03T01:18:33;7.57;;;4.90;;
68866;SDS011;56451;44.804;20.476;2023-04-03T01:21:27;7.45;;;4.53;;
68866;SDS011;56451;44.804;20.476;2023-04-03T01:24:05;9.05;;;4.82;;
68866;SDS011;56451;44.804;20.476;2023-04-03T01:26:58;6.20;;;4.28;;
68866;SDS011;56451;44.804;20.476;2023-04-03T01:29:24;8.02;;;5.38;;
68866;SDS011;56451;44.804;20.476;2023-04-03T01:31:54;10.57;;;5.43;;
68866;SDS011;56451;44.804;20.476;2023-04-03T01:34:26;9.38;;;5.10;;
68866;SDS011;56451;44.804;20.476;2023-04-03T01:36:53;8.88;;;5.65;;
68866;SDS011;56451;44.804;20.476;2023-04-03T01:39:20;14.35;;;5.32;;
68866;SDS011;56451;44.804;20.476;2023-04-03T01:41:46;9.95;;;5.82;;
68866;SDS011;56451;44.804;20.476;2023-04-03T01:44:19;11.18;;;6.28;;
68866;SDS011;56451;44.804;20.476;2023-04-03T01:46:45;9.90;;;6.15;;
68866;SDS011;56451;44.804;20.476;2023-04-03T01:49:11;10.18;;;6.10;;
68866;SDS011;56451;44.804;20.476;2023-04-03T01:51:37;10.73;;;5.93;;
68866;SDS011;56451;44.804;20.476;2023-04-03T01:54:03;12.07;;;6.30;;
68866;SDS011;56451;44.804;20.476;2023-04-03T01:56:29;10.25;;;6.25;;
68866;SDS011;56451;44.804;20.476;2023-04-03T01:58:56;11.65;;;6.05;;
68866;SDS011;56451;44.804;20.476;2023-04-03T02:01:22;9.20;;;6.13;;
68866;SDS011;56451;44.804;20.476;2023-04-03T02:03:48;10.38;;;6.40;;
68866;SDS011;56451;44.804;20.476;2023-04-03T02:06:14;9.95;;;5.80;;
68866;SDS011;56451;44.804;20.476;2023-04-03T02:08:40;11.32;;;5.93;;
68866;SDS011;56451;44.804;20.476;2023-04-03T02:11:07;9.57;;;6.15;;
68866;SDS011;56451;44.804;20.476;2023-04-03T02:13:33;11.87;;;6.20;;
68866;SDS011;56451;44.804;20.476;2023-04-03T02:15:59;12.38;;;6.30;;
68866;SDS011;56451;44.804;20.476;2023-04-03T02:18:31;12.02;;;6.60;;
68866;SDS011;56451;44.804;20.476;2023-04-03T02:20:57;10.95;;;6.60;;
68866;SDS011;56451;44.804;20.476;2023-04-03T02:23:23;10.73;;;7.23;;
68866;SDS011;56451;44.804;20.476;2023-04-03T02:25:50;9.90;;;5.88;;
68866;SDS011;56451;44.804;20.476;2023-04-03T02:28:16;10.90;;;6.03;;
68866;SDS011;56451;44.804;20.476;2023-04-03T02:30:42;11.60;;;6.67;;
68866;SDS011;56451;44.804;20.476;2023-04-03T02:33:07;11.63;;;5.88;;
68866;SDS011;56451;44.804;20.476;2023-04-03T02:35:34;9.50;;;6.53;;
68866;SDS011;56451;44.804;20.476;2023-04-03T02:38:00;12.40;;;6.38;;
68866;SDS011;56451;44.804;20.476;2023-04-03T02:40:26;10.10;;;5.88;;
68866;SDS011;56451;44.804;20.476;2023-04-03T02:42:52;9.98;;;6.32;;
68866;SDS011;56451;44.804;20.476;2023-04-03T02:45:19;11.13;;;6.63;;
68866;SDS011;56451;44.804;20.476;2023-04-03T02:47:45;10.03;;;6.60;;
68866;SDS011;56451;44.804;20.476;2023-04-03T02:50:11;10.00;;;6.47;;
68866;SDS011;56451;44.804;20.476;2023-04-03T02:52:37;10.63;;;6.35;;
68866;SDS011;56451;44.804;20.476;2023-04-03T02:55:03;10.00;;;6.18;;
68866;SDS011;56451;44.804;20.476;2023-04-03T02:57:29;10.35;;;6.75;;
68866;SDS011;56451;44.804;20.476;2023-04-03T02:59:55;11.65;;;7.15;;
68866;SDS011;56451;44.804;20.476;2023-04-03T03:02:21;11.40;;;6.72;;
68866;SDS011;56451;44.804;20.476;2023-04-03T03:04:47;10.65;;;6.15;;
68866;SDS011;56451;44.804;20.476;2023-04-03T03:07:13;10.87;;;6.87;;
68866;SDS011;56451;44.804;20.476;2023-04-03T03:09:38;11.88;;;7.28;;
68866;SDS011;56451;44.804;20.476;2023-04-03T03:12:05;12.82;;;6.78;;
68866;SDS011;56451;44.804;20.476;2023-04-03T03:14:30;12.47;;;6.80;;
68866;SDS011;56451;44.804;20.476;2023-04-03T03:16:56;11.45;;;7.28;;
68866;SDS011;56451;44.804;20.476;2023-04-03T03:19:22;10.65;;;7.30;;
68866;SDS011;56451;44.804;20.476;2023-04-03T03:21:48;13.43;;;7.50;;
68866;SDS011;56451;44.804;20.476;2023-04-03T03:24:15;12.25;;;7.30;;
68866;SDS011;56451;44.804;20.476;2023-04-03T03:26:41;12.07;;;7.00;;
68866;SDS011;56451;44.804;20.476;2023-04-03T03:29:07;15.48;;;7.78;;
68866;SDS011;56451;44.804;20.476;2023-04-03T03:31:33;11.20;;;6.80;;
68866;SDS011;56451;44.804;20.476;2023-04-03T03:33:59;11.70;;;7.50;;
68866;SDS011;56451;44.804;20.476;2023-04-03T03:36:25;13.03;;;6.97;;
68866;SDS011;56451;44.804;20.476;2023-04-03T03:38:51;13.50;;;7.72;;
68866;SDS011;56451;44.804;20.476;2023-04-03T03:41:17;11.52;;;6.80;;
68866;SDS011;56451;44.804;20.476;2023-04-03T03:43:44;12.85;;;7.22;;
68866;SDS011;56451;44.804;20.476;2023-04-03T03:46:12;11.67;;;7.27;;
68866;SDS011;56451;44.804;20.476;2023-04-03T03:48:38;14.18;;;8.15;;
68866;SDS011;56451;44.804;20.476;2023-04-03T03:51:04;11.77;;;7.40;;
68866;SDS011;56451;44.804;20.476;2023-04-03T03:53:34;16.73;;;7.78;;
68866;SDS011;56451;44.804;20.476;2023-04-03T03:56:04;14.32;;;7.97;;
68866;SDS011;56451;44.804;20.476;2023-04-03T03:58:31;13.75;;;7.43;;
68866;SDS011;56451;44.804;20.476;2023-04-03T04:01:05;12.40;;;7.65;;
68866;SDS011;56451;44.804;20.476;2023-04-03T04:03:33;14.50;;;7.60;;
68866;SDS011;56451;44.804;20.476;2023-04-03T04:05:59;14.05;;;7.57;;
68866;SDS011;56451;44.804;20.476;2023-04-03T04:08:25;14.43;;;8.27;;
68866;SDS011;56451;44.804;20.476;2023-04-03T04:10:51;13.35;;;7.82;;
68866;SDS011;56451;44.804;20.476;2023-04-03T04:13:18;11.93;;;7.78;;
68866;SDS011;56451;44.804;20.476;2023-04-03T04:15:44;13.90;;;8.68;;
68866;SDS011;56451;44.804;20.476;2023-04-03T04:18:11;14.75;;;7.80;;
68866;SDS011;56451;44.804;20.476;2023-04-03T04:20:40;16.85;;;8.35;;
68866;SDS011;56451;44.804;20.476;2023-04-03T04:23:06;14.27;;;7.85;;
68866;SDS011;56451;44.804;20.476;2023-04-03T04:25:32;13.68;;;7.80;;
68866;SDS011;56451;44.804;20.476;2023-04-03T04:27:58;12.90;;;8.38;;
68866;SDS011;56451;44.804;20.476;2023-04-03T04:30:24;13.27;;;8.82;;
68866;SDS011;56451;44.804;20.476;2023-04-03T04:32:52;14.63;;;8.52;;
68866;SDS011;56451;44.804;20.476;2023-04-03T04:35:18;13.95;;;8.32;;
68866;SDS011;56451;44.804;20.476;2023-04-03T04:37:47;15.98;;;8.45;;
68866;SDS011;56451;44.804;20.476;2023-04-03T04:40:13;12.88;;;7.70;;
68866;SDS011;56451;44.804;20.476;2023-04-03T04:42:39;15.20;;;7.90;;
68866;SDS011;56451;44.804;20.476;2023-04-03T04:45:05;14.35;;;8.48;;
68866;SDS011;56451;44.804;20.476;2023-04-03T04:47:33;12.77;;;8.25;;
68866;SDS011;56451;44.804;20.476;2023-04-03T04:49:59;13.07;;;7.32;;
68866;SDS011;56451;44.804;20.476;2023-04-03T04:52:25;12.32;;;7.88;;
68866;SDS011;56451;44.804;20.476;2023-04-03T04:54:52;12.55;;;7.97;;
68866;SDS011;56451;44.804;20.476;2023-04-03T04:57:18;14.07;;;8.73;;
68866;SDS011;56451;44.804;20.476;2023-04-03T04:59:44;15.60;;;8.52;;
68866;SDS011;56451;44.804;20.476;2023-04-03T05:02:11;16.10;;;8.90;;
68866;SDS011;56451;44.804;20.476;2023-04-03T05:04:39;16.13;;;8.88;;
68866;SDS011;56451;44.804;20.476;2023-04-03T05:07:11;12.90;;;8.45;;
68866;SDS011;56451;44.804;20.476;2023-04-03T05:09:37;16.48;;;8.88;;
68866;SDS011;56451;44.804;20.476;2023-04-03T05:12:04;14.88;;;8.93;;
68866;SDS011;56451;44.804;20.476;2023-04-03T05:14:36;14.55;;;9.00;;
68866;SDS011;56451;44.804;20.476;2023-04-03T05:17:05;16.40;;;8.70;;
68866;SDS011;56451;44.804;20.476;2023-04-03T05:19:35;14.98;;;8.85;;
68866;SDS011;56451;44.804;20.476;2023-04-03T05:22:02;17.48;;;9.48;;
68866;SDS011;56451;44.804;20.476;2023-04-03T05:24:29;15.90;;;9.10;;
68866;SDS011;56451;44.804;20.476;2023-04-03T05:26:55;14.93;;;8.70;;
68866;SDS011;56451;44.804;20.476;2023-04-03T05:29:22;16.27;;;8.95;;
68866;SDS011;56451;44.804;20.476;2023-04-03T05:31:49;15.00;;;9.35;;
68866;SDS011;56451;44.804;20.476;2023-04-03T05:34:16;16.58;;;9.77;;
68866;SDS011;56451;44.804;20.476;2023-04-03T05:36:43;14.77;;;9.18;;
68866;SDS011;56451;44.804;20.476;2023-04-03T05:39:10;16.45;;;9.00;;
68866;SDS011;56451;44.804;20.476;2023-04-03T05:41:40;16.73;;;8.93;;
68866;SDS011;56451;44.804;20.476;2023-04-03T05:44:06;16.27;;;9.18;;
68866;SDS011;56451;44.804;20.476;2023-04-03T05:46:32;15.95;;;9.15;;
68866;SDS011;56451;44.804;20.476;2023-04-03T05:49:02;15.00;;;9.15;;
68866;SDS011;56451;44.804;20.476;2023-04-03T05:51:32;21.40;;;10.52;;
68866;SDS011;56451;44.804;20.476;2023-04-03T05:54:11;19.00;;;9.93;;
68866;SDS011;56451;44.804;20.476;2023-04-03T05:56:41;17.60;;;9.88;;
68866;SDS011;56451;44.804;20.476;2023-04-03T05:59:07;19.42;;;10.10;;
68866;SDS011;56451;44.804;20.476;2023-04-03T06:01:34;17.77;;;10.63;;
68866;SDS011;56451;44.804;20.476;2023-04-03T06:04:00;18.40;;;9.88;;
68866;SDS011;56451;44.804;20.476;2023-04-03T06:06:42;19.27;;;10.07;;
68866;SDS011;56451;44.804;20.476;2023-04-03T06:09:10;18.20;;;9.68;;
68866;SDS011;56451;44.804;20.476;2023-04-03T06:11:36;16.90;;;9.93;;
68866;SDS011;56451;44.804;20.476;2023-04-03T06:14:02;19.10;;;10.98;;
68866;SDS011;56451;44.804;20.476;2023-04-03T06:16:28;19.00;;;11.48;;
68866;SDS011;56451;44.804;20.476;2023-04-03T06:18:54;17.43;;;9.93;;
68866;SDS011;56451;44.804;20.476;2023-04-03T06:21:22;21.02;;;10.88;;
68866;SDS011;56451;44.804;20.476;2023-04-03T06:23:47;21.35;;;10.82;;
68866;SDS011;56451;44.804;20.476;2023-04-03T06:26:13;15.05;;;8.63;;
68866;SDS011;56451;44.804;20.476;2023-04-03T06:28:40;20.57;;;8.53;;
68866;SDS011;56451;44.804;20.476;2023-04-03T06:31:06;13.02;;;6.90;;
68866;SDS011;56451;44.804;20.476;2023-04-03T06:33:32;12.80;;;7.05;;
68866;SDS011;56451;44.804;20.476;2023-04-03T06:35:58;13.45;;;6.57;;
68866;SDS011;56451;44.804;20.476;2023-04-03T06:38:24;11.00;;;6.32;;
68866;SDS011;56451;44.804;20.476;2023-04-03T06:40:51;7.85;;;4.82;;
68866;SDS011;56451;44.804;20.476;2023-04-03T06:43:17;9.02;;;5.40;;
68866;SDS011;56451;44.804;20.476;2023-04-03T06:45:43;7.53;;;4.38;;
68866;SDS011;56451;44.804;20.476;2023-04-03T06:48:09;6.77;;;4.30;;
68866;SDS011;56451;44.804;20.476;2023-04-03T06:50:34;9.18;;;4.53;;
68866;SDS011;56451;44.804;20.476;2023-04-03T06:53:00;8.50;;;4.00;;
68866;SDS011;56451;44.804;20.476;2023-04-03T06:55:27;8.23;;;3.75;;
68866;SDS011;56451;44.804;20.476;2023-04-03T06:57:53;7.60;;;4.40;;
68866;SDS011;56451;44.804;20.476;2023-04-03T07:00:19;6.10;;;3.60;;
68866;SDS011;56451;44.804;20.476;2023-04-03T07:02:45;7.07;;;3.97;;
68866;SDS011;56451;44.804;20.476;2023-04-03T07:05:11;7.10;;;3.40;;
68866;SDS011;56451;44.804;20.476;2023-04-03T07:07:38;5.97;;;3.42;;
68866;SDS011;56451;44.804;20.476;2023-04-03T07:10:05;5.60;;;3.72;;
68866;SDS011;56451;44.804;20.476;2023-04-03T07:12:32;7.60;;;3.60;;
68866;SDS011;56451;44.804;20.476;2023-04-03T07:14:57;5.53;;;3.70;;
68866;SDS011;56451;44.804;20.476;2023-04-03T07:17:23;5.68;;;3.53;;
68866;SDS011;56451;44.804;20.476;2023-04-03T07:19:50;6.55;;;3.30;;
68866;SDS011;56451;44.804;20.476;2023-04-03T07:22:17;7.45;;;3.35;;
68866;SDS011;56451;44.804;20.476;2023-04-03T07:24:43;5.82;;;3.58;;
68866;SDS011;56451;44.804;20.476;2023-04-03T07:27:09;8.30;;;3.47;;
68866;SDS011;56451;44.804;20.476;2023-04-03T07:29:36;5.68;;;3.08;;
68866;SDS011;56451;44.804;20.476;2023-04-03T07:32:02;5.32;;;3.28;;
68866;SDS011;56451;44.804;20.476;2023-04-03T07:34:28;9.82;;;3.50;;
68866;SDS011;56451;44.804;20.476;2023-04-03T07:36:54;4.80;;;2.88;;
68866;SDS011;56451;44.804;20.476;2023-04-03T07:39:20;5.45;;;3.25;;
68866;SDS011;56451;44.804;20.476;2023-04-03T07:41:46;5.88;;;3.38;;
68866;SDS011;56451;44.804;20.476;2023-04-03T07:44:12;6.78;;;2.97;;
68866;SDS011;56451;44.804;20.476;2023-04-03T07:46:38;7.47;;;3.47;;
68866;SDS011;56451;44.804;20.476;2023-04-03T07:49:05;7.30;;;3.22;;
68866;SDS011;56451;44.804;20.476;2023-04-03T07:51:32;5.70;;;3.20;;
68866;SDS011;56451;44.804;20.476;2023-04-03T07:53:58;6.55;;;3.30;;
68866;SDS011;56451;44.804;20.476;2023-04-03T07:56:24;6.10;;;3.43;;
68866;SDS011;56451;44.804;20.476;2023-04-03T07:58:50;5.20;;;3.08;;
68866;SDS011;56451;44.804;20.476;2023-04-03T08:01:16;5.25;;;3.10;;
68866;SDS011;56451;44.804;20.476;2023-04-03T08:03:42;6.20;;;3.45;;
68866;SDS011;56451;44.804;20.476;2023-04-03T08:06:10;6.78;;;3.75;;
68866;SDS011;56451;44.804;20.476;2023-04-03T08:08:36;6.20;;;3.85;;
68866;SDS011;56451;44.804;20.476;2023-04-03T08:11:02;5.70;;;2.85;;
68866;SDS011;56451;44.804;20.476;2023-04-03T08:13:30;4.88;;;2.75;;
68866;SDS011;56451;44.804;20.476;2023-04-03T08:15:57;5.03;;;2.75;;
68866;SDS011;56451;44.804;20.476;2023-04-03T08:18:24;5.65;;;2.80;;
68866;SDS011;56451;44.804;20.476;2023-04-03T08:20:51;4.90;;;2.95;;
68866;SDS011;56451;44.804;20.476;2023-04-03T08:23:18;4.32;;;2.50;;
68866;SDS011;56451;44.804;20.476;2023-04-03T08:25:44;6.18;;;3.00;;
68866;SDS011;56451;44.804;20.476;2023-04-03T08:28:11;7.60;;;2.58;;
68866;SDS011;56451;44.804;20.476;2023-04-03T08:30:40;5.03;;;2.60;;
68866;SDS011;56451;44.804;20.476;2023-04-03T08:33:08;5.60;;;3.30;;
68866;SDS011;56451;44.804;20.476;2023-04-03T08:35:38;5.28;;;3.20;;
68866;SDS011;56451;44.804;20.476;2023-04-03T08:38:07;5.72;;;3.63;;
68866;SDS011;56451;44.804;20.476;2023-04-03T08:40:34;5.93;;;2.97;;
68866;SDS011;56451;44.804;20.476;2023-04-03T08:45:43;4.50;;;2.80;;
68866;SDS011;56451;44.804;20.476;2023-04-03T08:48:17;4.10;;;2.50;;
68866;SDS011;56451;44.804;20.476;2023-04-03T08:50:47;4.20;;;2.72;;
68866;SDS011;56451;44.804;20.476;2023-04-03T08:53:17;7.15;;;2.92;;
68866;SDS011;56451;44.804;20.476;2023-04-03T08:55:50;8.52;;;3.30;;
68866;SDS011;56451;44.804;20.476;2023-04-03T09:03:17;6.82;;;2.95;;
68866;SDS011;56451;44.804;20.476;2023-04-03T09:05:55;6.30;;;2.88;;
68866;SDS011;56451;44.804;20.476;2023-04-03T09:08:27;6.90;;;3.70;;
68866;SDS011;56451;44.804;20.476;2023-04-03T09:11:00;8.73;;;3.15;;
68866;SDS011;56451;44.804;20.476;2023-04-03T09:13:54;5.38;;;3.22;;
68866;SDS011;56451;44.804;20.476;2023-04-03T09:16:39;5.18;;;2.92;;
68866;SDS011;56451;44.804;20.476;2023-04-03T09:21:57;5.43;;;2.97;;
68866;SDS011;56451;44.804;20.476;2023-04-03T09:24:45;4.55;;;2.85;;
68866;SDS011;56451;44.804;20.476;2023-04-03T09:27:14;6.10;;;3.00;;
68866;SDS011;56451;44.804;20.476;2023-04-03T09:29:43;5.68;;;3.03;;
68866;SDS011;56451;44.804;20.476;2023-04-03T09:32:18;7.70;;;3.53;;
68866;SDS011;56451;44.804;20.476;2023-04-03T09:34:50;4.78;;;3.20;;
68866;SDS011;56451;44.804;20.476;2023-04-03T09:37:36;6.75;;;3.42;;
68866;SDS011;56451;44.804;20.476;2023-04-03T09:42:56;4.88;;;3.00;;
68866;SDS011;56451;44.804;20.476;2023-04-03T09:45:31;4.78;;;2.80;;
68866;SDS011;56451;44.804;20.476;2023-04-03T09:50:35;4.00;;;3.03;;
68866;SDS011;56451;44.804;20.476;2023-04-03T09:53:06;5.47;;;3.00;;
68866;SDS011;56451;44.804;20.476;2023-04-03T09:55:50;4.80;;;2.92;;
68866;SDS011;56451;44.804;20.476;2023-04-03T09:58:27;5.37;;;3.10;;
68866;SDS011;56451;44.804;20.476;2023-04-03T10:01:02;5.90;;;3.80;;
68866;SDS011;56451;44.804;20.476;2023-04-03T10:03:32;5.15;;;3.53;;
68866;SDS011;56451;44.804;20.476;2023-04-03T10:06:01;5.82;;;3.50;;
68866;SDS011;56451;44.804;20.476;2023-04-03T10:08:32;7.03;;;3.45;;
68866;SDS011;56451;44.804;20.476;2023-04-03T10:11:07;6.82;;;3.50;;
68866;SDS011;56451;44.804;20.476;2023-04-03T10:16:24;6.93;;;3.60;;
68866;SDS011;56451;44.804;20.476;2023-04-03T10:21:43;7.10;;;3.33;;
68866;SDS011;56451;44.804;20.476;2023-04-03T10:24:14;7.63;;;3.50;;
68866;SDS011;56451;44.804;20.476;2023-04-03T10:26:56;5.70;;;3.10;;
68866;SDS011;56451;44.804;20.476;2023-04-03T10:32:45;4.63;;;2.60;;
68866;SDS011;56451;44.804;20.476;2023-04-03T10:35:48;6.43;;;3.20;;
68866;SDS011;56451;44.804;20.476;2023-04-03T10:38:33;6.32;;;3.17;;
68866;SDS011;56451;44.804;20.476;2023-04-03T10:41:09;6.30;;;3.35;;
68866;SDS011;56451;44.804;20.476;2023-04-03T10:46:37;7.97;;;3.60;;
68866;SDS011;56451;44.804;20.476;2023-04-03T10:49:22;7.03;;;3.60;;
68866;SDS011;56451;44.804;20.476;2023-04-03T10:57:32;6.65;;;4.20;;
68866;SDS011;56451;44.804;20.476;2023-04-03T11:00:00;7.75;;;3.63;;
68866;SDS011;56451;44.804;20.476;2023-04-03T11:02:33;5.22;;;3.25;;
68866;SDS011;56451;44.804;20.476;2023-04-03T11:05:07;8.40;;;3.70;;
68866;SDS011;56451;44.804;20.476;2023-04-03T11:07:59;8.13;;;3.67;;
68866;SDS011;56451;44.804;20.476;2023-04-03T11:10:35;5.43;;;3.40;;
68866;SDS011;56451;44.804;20.476;2023-04-03T11:15:57;5.18;;;2.75;;
68866;SDS011;56451;44.804;20.476;2023-04-03T11:18:43;5.78;;;3.45;;
68866;SDS011;56451;44.804;20.476;2023-04-03T11:21:34;5.88;;;2.95;;
68866;SDS011;56451;44.804;20.476;2023-04-03T11:24:02;7.18;;;3.00;;
68866;SDS011;56451;44.804;20.476;2023-04-03T11:26:35;8.63;;;3.42;;
68866;SDS011;56451;44.804;20.476;2023-04-03T11:29:06;4.53;;;2.60;;
68866;SDS011;56451;44.804;20.476;2023-04-03T11:36:43;4.40;;;2.85;;
68866;SDS011;56451;44.804;20.476;2023-04-03T11:42:14;4.93;;;3.10;;
68866;SDS011;56451;44.804;20.476;2023-04-03T11:44:41;5.70;;;2.90;;
68866;SDS011;56451;44.804;20.476;2023-04-03T11:47:08;4.53;;;2.80;;
68866;SDS011;56451;44.804;20.476;2023-04-03T11:49:51;4.80;;;3.00;;
68866;SDS011;56451;44.804;20.476;2023-04-03T12:00:58;7.18;;;3.42;;
68866;SDS011;56451;44.804;20.476;2023-04-03T12:21:23;6.40;;;2.90;;
68866;SDS011;56451;44.804;20.476;2023-04-03T12:29:34;5.55;;;2.65;;
68866;SDS011;56451;44.804;20.476;2023-04-03T12:32:17;5.78;;;3.08;;
68866;SDS011;56451;44.804;20.476;2023-04-03T12:48:51;7.17;;;3.30;;
68866;SDS011;56451;44.804;20.476;2023-04-03T12:51:33;8.07;;;3.58;;
68866;SDS011;56451;44.804;20.476;2023-04-03T12:54:04;6.35;;;3.50;;
68866;SDS011;56451;44.804;20.476;2023-04-03T12:56:44;8.32;;;3.83;;
68866;SDS011;56451;44.804;20.476;2023-04-03T12:59:15;7.88;;;2.95;;
68866;SDS011;56451;44.804;20.476;2023-04-03T13:01:44;5.83;;;3.10;;
68866;SDS011;56451;44.804;20.476;2023-04-03T13:04:19;5.00;;;2.58;;
68866;SDS011;56451;44.804;20.476;2023-04-03T13:06:45;4.78;;;2.90;;
68866;SDS011;56451;44.804;20.476;2023-04-03T13:09:44;4.82;;;2.40;;
68866;SDS011;56451;44.804;20.476;2023-04-03T13:12:11;4.15;;;2.47;;
68866;SDS011;56451;44.804;20.476;2023-04-03T13:14:39;6.60;;;2.80;;
68866;SDS011;56451;44.804;20.476;2023-04-03T13:17:13;6.90;;;2.83;;
68866;SDS011;56451;44.804;20.476;2023-04-03T13:19:40;5.47;;;3.25;;
68866;SDS011;56451;44.804;20.476;2023-04-03T13:22:13;6.22;;;2.92;;
68866;SDS011;56451;44.804;20.476;2023-04-03T13:24:50;5.88;;;2.72;;
68866;SDS011;56451;44.804;20.476;2023-04-03T13:27:17;4.93;;;3.00;;
68866;SDS011;56451;44.804;20.476;2023-04-03T13:29:48;3.75;;;2.05;;
68866;SDS011;56451;44.804;20.476;2023-04-03T13:32:26;11.13;;;3.83;;
68866;SDS011;56451;44.804;20.476;2023-04-03T13:34:54;4.47;;;2.38;;
68866;SDS011;56451;44.804;20.476;2023-04-03T13:39:58;4.87;;;2.77;;
68866;SDS011;56451;44.804;20.476;2023-04-03T13:42:28;4.75;;;2.83;;
68866;SDS011;56451;44.804;20.476;2023-04-03T13:45:10;5.13;;;3.25;;
68866;SDS011;56451;44.804;20.476;2023-04-03T13:47:50;6.18;;;3.25;;
68866;SDS011;56451;44.804;20.476;2023-04-03T13:50:20;7.65;;;4.47;;
68866;SDS011;56451;44.804;20.476;2023-04-03T13:52:49;6.00;;;3.40;;
68866;SDS011;56451;44.804;20.476;2023-04-03T13:57:54;5.38;;;3.10;;
68866;SDS011;56451;44.804;20.476;2023-04-03T14:03:13;5.28;;;3.13;;
68866;SDS011;56451;44.804;20.476;2023-04-03T14:05:46;5.27;;;2.97;;
68866;SDS011;56451;44.804;20.476;2023-04-03T14:08:12;5.28;;;3.35;;
68866;SDS011;56451;44.804;20.476;2023-04-03T14:10:38;6.85;;;3.45;;
68866;SDS011;56451;44.804;20.476;2023-04-03T14:13:05;4.82;;;2.67;;
68866;SDS011;56451;44.804;20.476;2023-04-03T14:15:31;4.32;;;2.42;;
68866;SDS011;56451;44.804;20.476;2023-04-03T14:17:57;6.37;;;2.67;;
68866;SDS011;56451;44.804;20.476;2023-04-03T14:20:26;4.30;;;2.40;;
68866;SDS011;56451;44.804;20.476;2023-04-03T14:22:52;3.63;;;2.60;;
68866;SDS011;56451;44.804;20.476;2023-04-03T14:25:19;5.25;;;2.70;;
68866;SDS011;56451;44.804;20.476;2023-04-03T14:27:49;4.00;;;2.80;;
68866;SDS011;56451;44.804;20.476;2023-04-03T14:30:21;5.00;;;2.70;;
68866;SDS011;56451;44.804;20.476;2023-04-03T14:32:56;5.05;;;2.80;;
68866;SDS011;56451;44.804;20.476;2023-04-03T14:35:23;7.25;;;2.67;;
68866;SDS011;56451;44.804;20.476;2023-04-03T14:37:50;4.85;;;2.65;;
68866;SDS011;56451;44.804;20.476;2023-04-03T14:40:19;5.22;;;2.60;;
68866;SDS011;56451;44.804;20.476;2023-04-03T14:42:48;4.43;;;2.17;;
68866;SDS011;56451;44.804;20.476;2023-04-03T14:45:15;3.22;;;2.30;;
68866;SDS011;56451;44.804;20.476;2023-04-03T14:47:47;6.40;;;2.63;;
68866;SDS011;56451;44.804;20.476;2023-04-03T14:50:17;4.03;;;2.35;;
68866;SDS011;56451;44.804;20.476;2023-04-03T14:52:46;4.88;;;2.88;;
68866;SDS011;56451;44.804;20.476;2023-04-03T14:55:17;4.67;;;3.00;;
68866;SDS011;56451;44.804;20.476;2023-04-03T14:57:44;5.18;;;2.50;;
68866;SDS011;56451;44.804;20.476;2023-04-03T15:00:17;4.65;;;2.70;;
68866;SDS011;56451;44.804;20.476;2023-04-03T15:02:45;4.95;;;2.50;;
68866;SDS011;56451;44.804;20.476;2023-04-03T15:05:13;5.63;;;2.88;;
68866;SDS011;56451;44.804;20.476;2023-04-03T15:07:41;10.30;;;3.00;;
68866;SDS011;56451;44.804;20.476;2023-04-03T15:12:43;5.20;;;2.72;;
68866;SDS011;56451;44.804;20.476;2023-04-03T15:15:10;5.20;;;2.40;;
68866;SDS011;56451;44.804;20.476;2023-04-03T15:17:36;6.80;;;2.90;;
68866;SDS011;56451;44.804;20.476;2023-04-03T15:20:03;5.00;;;2.13;;
68866;SDS011;56451;44.804;20.476;2023-04-03T15:22:36;6.45;;;2.65;;
68866;SDS011;56451;44.804;20.476;2023-04-03T15:25:02;7.20;;;2.60;;
68866;SDS011;56451;44.804;20.476;2023-04-03T15:27:28;5.55;;;2.90;;
68866;SDS011;56451;44.804;20.476;2023-04-03T15:29:54;4.90;;;3.27;;
68866;SDS011;56451;44.804;20.476;2023-04-03T15:32:20;5.22;;;2.90;;
68866;SDS011;56451;44.804;20.476;2023-04-03T15:34:46;6.45;;;2.95;;
68866;SDS011;56451;44.804;20.476;2023-04-03T15:37:12;5.20;;;2.90;;
68866;SDS011;56451;44.804;20.476;2023-04-03T15:39:38;7.18;;;3.00;;
68866;SDS011;56451;44.804;20.476;2023-04-03T15:42:03;5.88;;;2.50;;
68866;SDS011;56451;44.804;20.476;2023-04-03T15:44:32;6.32;;;4.55;;
68866;SDS011;56451;44.804;20.476;2023-04-03T15:47:00;6.17;;;3.47;;
68866;SDS011;56451;44.804;20.476;2023-04-03T15:49:27;6.43;;;3.08;;
68866;SDS011;56451;44.804;20.476;2023-04-03T15:51:53;6.78;;;3.10;;
68866;SDS011;56451;44.804;20.476;2023-04-03T15:54:19;8.43;;;3.10;;
68866;SDS011;56451;44.804;20.476;2023-04-03T15:56:45;7.43;;;2.70;;
68866;SDS011;56451;44.804;20.476;2023-04-03T15:59:12;4.95;;;2.78;;
68866;SDS011;56451;44.804;20.476;2023-04-03T16:01:37;6.95;;;3.72;;
68866;SDS011;56451;44.804;20.476;2023-04-03T16:04:04;5.47;;;2.92;;
68866;SDS011;56451;44.804;20.476;2023-04-03T16:06:30;4.63;;;2.57;;
68866;SDS011;56451;44.804;20.476;2023-04-03T16:08:58;7.90;;;2.80;;
68866;SDS011;56451;44.804;20.476;2023-04-03T16:11:25;5.22;;;2.80;;
68866;SDS011;56451;44.804;20.476;2023-04-03T16:13:51;5.10;;;2.90;;
68866;SDS011;56451;44.804;20.476;2023-04-03T16:16:17;4.77;;;2.60;;
68866;SDS011;56451;44.804;20.476;2023-04-03T16:18:44;6.00;;;3.05;;
68866;SDS011;56451;44.804;20.476;2023-04-03T16:21:12;6.47;;;2.80;;
68866;SDS011;56451;44.804;20.476;2023-04-03T16:23:40;9.30;;;2.70;;
68866;SDS011;56451;44.804;20.476;2023-04-03T16:26:06;10.55;;;2.80;;